sensor_id;sensor_type;location;lat;lon;timestamp;pressure;altitude;pressure_sealevel;temperature;humidity
72110;BME280;59983;52.010;5.420;2023-06-05T00:00:19;102334.66;;;14.27;74.37
72110;BME280;59983;52.010;5.420;2023-06-05T00:02:46;102327.94;;;14.25;74.21
72110;BME280;59983;52.010;5.420;2023-06-05T00:05:14;102329.72;;;14.21;74.48
72110;BME280;59983;52.010;5.420;2023-06-05T00:07:41;102333.53;;;14.07;75.05
72110;BME280;59983;52.010;5.420;2023-06-05T00:10:08;102333.38;;;14.04;75.11
72110;BME280;59983;52.010;5.420;2023-06-05T00:12:36;102330.97;;;14.02;75.33
72110;BME280;59983;52.010;5.420;2023-06-05T00:15:03;102335.00;;;14.05;75.35
72110;BME280;59983;52.010;5.420;2023-06-05T00:17:31;102335.84;;;13.97;75.54
72110;BME280;59983;52.010;5.420;2023-06-05T00:19:57;102337.97;;;13.91;75.86
72110;BME280;59983;52.010;5.420;2023-06-05T00:22:27;102332.22;;;13.84;75.99
72110;BME280;59983;52.010;5.420;2023-06-05T00:25:03;102328.75;;;13.75;76.52
72110;BME280;59983;52.010;5.420;2023-06-05T00:27:30;102332.44;;;13.79;76.36
72110;BME280;59983;52.010;5.420;2023-06-05T00:29:56;102324.94;;;13.67;76.69
72110;BME280;59983;52.010;5.420;2023-06-05T00:32:23;102336.38;;;13.60;77.16
72110;BME280;59983;52.010;5.420;2023-06-05T00:34:49;102326.88;;;13.67;77.03
72110;BME280;59983;52.010;5.420;2023-06-05T00:37:16;102334.63;;;13.56;77.19
72110;BME280;59983;52.010;5.420;2023-06-05T00:39:43;102336.56;;;13.55;77.57
72110;BME280;59983;52.010;5.420;2023-06-05T00:42:09;102334.16;;;13.54;77.73
72110;BME280;59983;52.010;5.420;2023-06-05T00:44:36;102339.16;;;13.52;77.82
72110;BME280;59983;52.010;5.420;2023-06-05T00:47:03;102345.31;;;13.31;78.59
72110;BME280;59983;52.010;5.420;2023-06-05T00:49:31;102339.06;;;13.31;78.83
72110;BME280;59983;52.010;5.420;2023-06-05T00:51:57;102335.19;;;13.41;78.49
72110;BME280;59983;52.010;5.420;2023-06-05T00:54:24;102343.38;;;13.32;78.73
72110;BME280;59983;52.010;5.420;2023-06-05T00:56:51;102345.19;;;13.28;79.08
72110;BME280;59983;52.010;5.420;2023-06-05T00:59:19;102349.84;;;13.27;79.19
72110;BME280;59983;52.010;5.420;2023-06-05T01:01:46;102336.34;;;13.31;78.65
72110;BME280;59983;52.010;5.420;2023-06-05T01:04:14;102345.00;;;13.16;79.27
72110;BME280;59983;52.010;5.420;2023-06-05T01:06:41;102336.03;;;13.24;79.58
72110;BME280;59983;52.010;5.420;2023-06-05T01:09:08;102338.28;;;13.30;79.03
72110;BME280;59983;52.010;5.420;2023-06-05T01:11:50;102338.94;;;13.27;78.66
72110;BME280;59983;52.010;5.420;2023-06-05T01:14:21;102341.81;;;13.22;79.23
72110;BME280;59983;52.010;5.420;2023-06-05T01:16:55;102334.31;;;13.19;79.65
72110;BME280;59983;52.010;5.420;2023-06-05T01:19:23;102334.31;;;13.19;79.47
72110;BME280;59983;52.010;5.420;2023-06-05T01:21:55;102327.09;;;13.06;79.83
72110;BME280;59983;52.010;5.420;2023-06-05T01:24:22;102330.16;;;13.04;80.16
72110;BME280;59983;52.010;5.420;2023-06-05T01:26:59;102322.97;;;13.00;80.15
72110;BME280;59983;52.010;5.420;2023-06-05T01:32:15;102324.44;;;12.80;80.87
72110;BME280;59983;52.010;5.420;2023-06-05T01:34:46;102321.41;;;12.82;81.19
72110;BME280;59983;52.010;5.420;2023-06-05T01:37:15;102327.00;;;12.85;81.12
72110;BME280;59983;52.010;5.420;2023-06-05T01:39:47;102315.47;;;12.80;81.49
72110;BME280;59983;52.010;5.420;2023-06-05T01:42:14;102313.38;;;12.85;81.16
72110;BME280;59983;52.010;5.420;2023-06-05T01:44:41;102312.44;;;12.81;81.53
72110;BME280;59983;52.010;5.420;2023-06-05T01:47:09;102306.69;;;12.74;81.76
72110;BME280;59983;52.010;5.420;2023-06-05T01:49:36;102307.78;;;12.82;81.71
72110;BME280;59983;52.010;5.420;2023-06-05T01:52:03;102308.41;;;12.87;80.88
72110;BME280;59983;52.010;5.420;2023-06-05T01:54:29;102306.03;;;12.77;81.34
72110;BME280;59983;52.010;5.420;2023-06-05T01:57:00;102309.72;;;12.81;81.37
72110;BME280;59983;52.010;5.420;2023-06-05T01:59:26;102311.00;;;12.75;81.50
72110;BME280;59983;52.010;5.420;2023-06-05T02:01:53;102303.00;;;12.70;81.94
72110;BME280;59983;52.010;5.420;2023-06-05T02:04:20;102302.03;;;12.74;81.77
72110;BME280;59983;52.010;5.420;2023-06-05T02:06:48;102304.91;;;12.69;81.51
72110;BME280;59983;52.010;5.420;2023-06-05T02:09:15;102301.41;;;12.60;82.01
72110;BME280;59983;52.010;5.420;2023-06-05T02:11:42;102309.09;;;12.58;82.12
72110;BME280;59983;52.010;5.420;2023-06-05T02:14:14;102301.09;;;12.62;82.38
72110;BME280;59983;52.010;5.420;2023-06-05T02:16:42;102299.81;;;12.51;82.58
72110;BME280;59983;52.010;5.420;2023-06-05T02:19:09;102299.16;;;12.54;82.51
72110;BME280;59983;52.010;5.420;2023-06-05T02:21:37;102294.84;;;12.44;82.84
72110;BME280;59983;52.010;5.420;2023-06-05T02:24:04;102302.56;;;12.42;83.12
72110;BME280;59983;52.010;5.420;2023-06-05T02:26:31;102291.00;;;12.54;82.82
72110;BME280;59983;52.010;5.420;2023-06-05T02:28:58;102294.06;;;12.52;82.52
72110;BME280;59983;52.010;5.420;2023-06-05T02:31:25;102295.66;;;12.44;82.81
72110;BME280;59983;52.010;5.420;2023-06-05T02:33:53;102285.56;;;12.45;82.89
72110;BME280;59983;52.010;5.420;2023-06-05T02:36:20;102290.06;;;12.41;82.96
72110;BME280;59983;52.010;5.420;2023-06-05T02:38:47;102296.47;;;12.28;83.37
72110;BME280;59983;52.010;5.420;2023-06-05T02:41:19;102293.13;;;12.31;83.61
72110;BME280;59983;52.010;5.420;2023-06-05T02:43:47;102292.94;;;12.36;83.48
72110;BME280;59983;52.010;5.420;2023-06-05T02:46:14;102281.44;;;12.39;83.23
72110;BME280;59983;52.010;5.420;2023-06-05T02:48:41;102281.25;;;12.35;83.07
72110;BME280;59983;52.010;5.420;2023-06-05T02:51:07;102288.47;;;12.23;83.46
72110;BME280;59983;52.010;5.420;2023-06-05T02:53:36;102277.91;;;12.12;84.34
72110;BME280;59983;52.010;5.420;2023-06-05T02:56:03;102273.09;;;12.18;84.01
72110;BME280;59983;52.010;5.420;2023-06-05T02:58:30;102274.88;;;12.05;84.43
72110;BME280;59983;52.010;5.420;2023-06-05T03:00:57;102270.88;;;12.11;84.21
72110;BME280;59983;52.010;5.420;2023-06-05T03:03:31;102277.91;;;12.04;84.51
72110;BME280;59983;52.010;5.420;2023-06-05T03:05:59;102267.84;;;12.04;84.48
72110;BME280;59983;52.010;5.420;2023-06-05T03:08:38;102280.47;;;12.09;84.09
72110;BME280;59983;52.010;5.420;2023-06-05T03:11:05;102269.75;;;12.12;84.17
72110;BME280;59983;52.010;5.420;2023-06-05T03:13:32;102277.44;;;12.10;83.88
72110;BME280;59983;52.010;5.420;2023-06-05T03:16:01;102272.81;;;12.11;84.12
72110;BME280;59983;52.010;5.420;2023-06-05T03:18:29;102278.72;;;11.96;84.76
72110;BME280;59983;52.010;5.420;2023-06-05T03:20:56;102268.63;;;11.96;84.92
72110;BME280;59983;52.010;5.420;2023-06-05T03:23:24;102265.44;;;11.94;84.76
72110;BME280;59983;52.010;5.420;2023-06-05T03:25:50;102267.34;;;11.94;84.77
72110;BME280;59983;52.010;5.420;2023-06-05T03:28:17;102269.75;;;11.86;85.35
72110;BME280;59983;52.010;5.420;2023-06-05T03:30:45;102266.50;;;11.76;85.81
72110;BME280;59983;52.010;5.420;2023-06-05T03:33:12;102272.75;;;11.76;86.20
72110;BME280;59983;52.010;5.420;2023-06-05T03:35:41;102266.97;;;11.78;85.90
72110;BME280;59983;52.010;5.420;2023-06-05T03:38:09;102269.69;;;11.69;86.42
72110;BME280;59983;52.010;5.420;2023-06-05T03:40:36;102258.63;;;11.66;86.79
72110;BME280;59983;52.010;5.420;2023-06-05T03:43:06;102265.84;;;11.61;86.85
72110;BME280;59983;52.010;5.420;2023-06-05T03:45:34;102271.59;;;11.69;86.61
72110;BME280;59983;52.010;5.420;2023-06-05T03:48:01;102264.88;;;11.75;86.28
72110;BME280;59983;52.010;5.420;2023-06-05T03:50:29;102265.56;;;11.80;86.03
72110;BME280;59983;52.010;5.420;2023-06-05T03:52:57;102264.63;;;11.85;85.95
72110;BME280;59983;52.010;5.420;2023-06-05T03:55:30;102262.19;;;11.83;85.48
72110;BME280;59983;52.010;5.420;2023-06-05T03:58:14;102263.16;;;11.79;85.93
72110;BME280;59983;52.010;5.420;2023-06-05T04:00:41;102258.34;;;11.76;86.16
72110;BME280;59983;52.010;5.420;2023-06-05T04:03:12;102261.53;;;11.78;86.27
72110;BME280;59983;52.010;5.420;2023-06-05T04:05:39;102253.72;;;11.76;86.32
72110;BME280;59983;52.010;5.420;2023-06-05T04:08:07;102258.97;;;11.73;86.67
72110;BME280;59983;52.010;5.420;2023-06-05T04:10:34;102259.94;;;11.68;86.76
72110;BME280;59983;52.010;5.420;2023-06-05T04:13:01;102267.28;;;11.59;86.74
72110;BME280;59983;52.010;5.420;2023-06-05T04:15:28;102258.34;;;11.67;87.14
72110;BME280;59983;52.010;5.420;2023-06-05T04:17:55;102270.00;;;11.68;86.98
72110;BME280;59983;52.010;5.420;2023-06-05T04:20:22;102267.28;;;11.68;86.71
72110;BME280;59983;52.010;5.420;2023-06-05T04:22:49;102263.59;;;11.63;87.02
72110;BME280;59983;52.010;5.420;2023-06-05T04:25:16;102266.00;;;11.74;87.00
72110;BME280;59983;52.010;5.420;2023-06-05T04:27:43;102270.06;;;11.85;86.27
72110;BME280;59983;52.010;5.420;2023-06-05T04:30:12;102276.91;;;11.82;86.43
72110;BME280;59983;52.010;5.420;2023-06-05T04:32:39;102287.19;;;11.85;86.57
72110;BME280;59983;52.010;5.420;2023-06-05T04:35:07;102281.09;;;11.88;86.48
72110;BME280;59983;52.010;5.420;2023-06-05T04:37:35;102274.53;;;11.98;85.84
72110;BME280;59983;52.010;5.420;2023-06-05T04:40:03;102286.88;;;12.04;85.92
72110;BME280;59983;52.010;5.420;2023-06-05T04:42:32;102279.97;;;11.98;85.63
72110;BME280;59983;52.010;5.420;2023-06-05T04:45:01;102287.00;;;11.90;86.46
72110;BME280;59983;52.010;5.420;2023-06-05T04:47:29;102286.41;;;12.02;85.97
72110;BME280;59983;52.010;5.420;2023-06-05T04:50:01;102279.31;;;11.93;85.99
72110;BME280;59983;52.010;5.420;2023-06-05T04:52:30;102273.41;;;11.90;86.10
72110;BME280;59983;52.010;5.420;2023-06-05T04:54:57;102281.91;;;11.98;86.35
72110;BME280;59983;52.010;5.420;2023-06-05T04:57:25;102282.38;;;12.00;86.15
72110;BME280;59983;52.010;5.420;2023-06-05T04:59:52;102291.50;;;12.04;86.04
72110;BME280;59983;52.010;5.420;2023-06-05T05:02:19;102291.34;;;12.00;86.19
72110;BME280;59983;52.010;5.420;2023-06-05T05:04:47;102291.03;;;12.02;86.43
72110;BME280;59983;52.010;5.420;2023-06-05T05:07:13;102289.75;;;12.08;86.49
72110;BME280;59983;52.010;5.420;2023-06-05T05:09:43;102292.47;;;12.08;86.17
72110;BME280;59983;52.010;5.420;2023-06-05T05:12:10;102283.69;;;12.11;86.09
72110;BME280;59983;52.010;5.420;2023-06-05T05:14:38;102291.84;;;12.02;86.47
72110;BME280;59983;52.010;5.420;2023-06-05T05:17:06;102294.84;;;12.01;86.96
72110;BME280;59983;52.010;5.420;2023-06-05T05:19:33;102290.41;;;12.05;86.86
72110;BME280;59983;52.010;5.420;2023-06-05T05:21:59;102292.78;;;12.06;86.51
72110;BME280;59983;52.010;5.420;2023-06-05T05:24:26;102287.03;;;12.08;86.60
72110;BME280;59983;52.010;5.420;2023-06-05T05:26:53;102291.06;;;12.10;86.82
72110;BME280;59983;52.010;5.420;2023-06-05T05:29:19;102292.00;;;12.23;86.37
72110;BME280;59983;52.010;5.420;2023-06-05T05:31:46;102288.94;;;12.25;85.96
72110;BME280;59983;52.010;5.420;2023-06-05T05:34:13;102290.72;;;12.29;86.19
72110;BME280;59983;52.010;5.420;2023-06-05T05:36:39;102293.91;;;12.40;85.56
72110;BME280;59983;52.010;5.420;2023-06-05T05:39:06;102292.47;;;12.34;85.48
72110;BME280;59983;52.010;5.420;2023-06-05T05:41:34;102292.94;;;12.53;85.14
72110;BME280;59983;52.010;5.420;2023-06-05T05:44:02;102296.75;;;12.61;84.62
72110;BME280;59983;52.010;5.420;2023-06-05T05:46:28;102295.47;;;12.67;84.56
72110;BME280;59983;52.010;5.420;2023-06-05T05:48:55;102303.78;;;12.70;84.08
72110;BME280;59983;52.010;5.420;2023-06-05T05:51:23;102296.72;;;12.78;84.03
72110;BME280;59983;52.010;5.420;2023-06-05T05:53:50;102296.09;;;12.81;83.94
72110;BME280;59983;52.010;5.420;2023-06-05T05:56:17;102300.69;;;12.89;83.71
72110;BME280;59983;52.010;5.420;2023-06-05T05:58:43;102296.34;;;12.97;83.34
72110;BME280;59983;52.010;5.420;2023-06-05T06:01:11;102298.13;;;13.01;82.80
72110;BME280;59983;52.010;5.420;2023-06-05T06:03:39;102295.88;;;13.03;82.80
72110;BME280;59983;52.010;5.420;2023-06-05T06:06:05;102298.88;;;13.11;82.85
72110;BME280;59983;52.010;5.420;2023-06-05T06:08:35;102303.31;;;13.32;82.25
72110;BME280;59983;52.010;5.420;2023-06-05T06:11:01;102303.47;;;13.36;81.14
72110;BME280;59983;52.010;5.420;2023-06-05T06:13:33;102301.56;;;13.28;81.75
72110;BME280;59983;52.010;5.420;2023-06-05T06:16:02;102300.41;;;13.38;81.78
72110;BME280;59983;52.010;5.420;2023-06-05T06:18:29;102293.50;;;13.40;81.27
72110;BME280;59983;52.010;5.420;2023-06-05T06:20:56;102298.25;;;13.52;81.30
72110;BME280;59983;52.010;5.420;2023-06-05T06:23:22;102301.81;;;13.73;80.68
72110;BME280;59983;52.010;5.420;2023-06-05T06:25:49;102294.25;;;13.79;80.31
72110;BME280;59983;52.010;5.420;2023-06-05T06:28:18;102296.44;;;13.85;80.11
72110;BME280;59983;52.010;5.420;2023-06-05T06:30:46;102306.56;;;13.85;79.97
72110;BME280;59983;52.010;5.420;2023-06-05T06:33:13;102307.16;;;13.91;79.18
72110;BME280;59983;52.010;5.420;2023-06-05T06:35:40;102316.81;;;13.88;79.47
72110;BME280;59983;52.010;5.420;2023-06-05T06:38:06;102311.25;;;14.05;79.15
72110;BME280;59983;52.010;5.420;2023-06-05T06:40:33;102307.56;;;14.22;78.76
72110;BME280;59983;52.010;5.420;2023-06-05T06:42:59;102312.38;;;14.25;78.05
72110;BME280;59983;52.010;5.420;2023-06-05T06:45:26;102315.09;;;14.46;78.25
72110;BME280;59983;52.010;5.420;2023-06-05T06:47:53;102311.56;;;14.45;77.10
72110;BME280;59983;52.010;5.420;2023-06-05T06:50:32;102298.22;;;14.44;76.92
72110;BME280;59983;52.010;5.420;2023-06-05T06:52:59;102295.72;;;14.60;76.57
72110;BME280;59983;52.010;5.420;2023-06-05T06:55:26;102305.75;;;14.68;76.43
72110;BME280;59983;52.010;5.420;2023-06-05T06:57:52;102309.66;;;14.79;75.72
72110;BME280;59983;52.010;5.420;2023-06-05T07:00:19;102308.25;;;14.73;75.49
72110;BME280;59983;52.010;5.420;2023-06-05T07:02:47;102313.72;;;14.73;76.48
72110;BME280;59983;52.010;5.420;2023-06-05T07:05:14;102312.50;;;14.83;75.99
72110;BME280;59983;52.010;5.420;2023-06-05T07:07:41;102317.09;;;15.03;75.03
72110;BME280;59983;52.010;5.420;2023-06-05T07:10:08;102322.69;;;15.07;75.12
72110;BME280;59983;52.010;5.420;2023-06-05T07:12:34;102327.00;;;15.08;74.85
72110;BME280;59983;52.010;5.420;2023-06-05T07:15:01;102321.78;;;15.15;75.00
72110;BME280;59983;52.010;5.420;2023-06-05T07:17:29;102324.41;;;15.23;74.20
72110;BME280;59983;52.010;5.420;2023-06-05T07:19:56;102325.22;;;15.24;74.08
72110;BME280;59983;52.010;5.420;2023-06-05T07:22:24;102303.91;;;15.42;74.48
72110;BME280;59983;52.010;5.420;2023-06-05T07:24:55;102323.06;;;15.54;73.60
72110;BME280;59983;52.010;5.420;2023-06-05T07:27:21;102315.69;;;15.67;73.07
72110;BME280;59983;52.010;5.420;2023-06-05T07:29:48;102315.00;;;15.82;72.29
72110;BME280;59983;52.010;5.420;2023-06-05T07:32:18;102316.78;;;16.02;71.99
72110;BME280;59983;52.010;5.420;2023-06-05T07:34:44;102309.31;;;16.15;71.57
72110;BME280;59983;52.010;5.420;2023-06-05T07:37:11;102307.44;;;16.31;70.83
72110;BME280;59983;52.010;5.420;2023-06-05T07:39:38;102314.72;;;16.39;69.73
72110;BME280;59983;52.010;5.420;2023-06-05T07:42:05;102319.31;;;16.23;69.81
72110;BME280;59983;52.010;5.420;2023-06-05T07:44:32;102324.53;;;16.40;69.40
72110;BME280;59983;52.010;5.420;2023-06-05T07:46:59;102314.41;;;16.57;69.32
72110;BME280;59983;52.010;5.420;2023-06-05T07:49:29;102319.38;;;16.79;69.55
72110;BME280;59983;52.010;5.420;2023-06-05T07:51:57;102312.28;;;16.94;68.93
72110;BME280;59983;52.010;5.420;2023-06-05T07:54:24;102316.03;;;17.02;67.57
72110;BME280;59983;52.010;5.420;2023-06-05T07:56:50;102314.16;;;16.90;67.64
72110;BME280;59983;52.010;5.420;2023-06-05T07:59:17;102309.09;;;16.76;68.35
72110;BME280;59983;52.010;5.420;2023-06-05T08:01:48;102321.78;;;16.68;68.75
72110;BME280;59983;52.010;5.420;2023-06-05T08:04:15;102327.91;;;16.78;68.70
72110;BME280;59983;52.010;5.420;2023-06-05T08:06:43;102316.19;;;16.93;69.25
72110;BME280;59983;52.010;5.420;2023-06-05T08:09:09;102323.72;;;17.27;68.21
72110;BME280;59983;52.010;5.420;2023-06-05T08:11:37;102326.09;;;17.61;67.97
72110;BME280;59983;52.010;5.420;2023-06-05T08:14:07;102315.56;;;17.63;66.00
72110;BME280;59983;52.010;5.420;2023-06-05T08:16:35;102325.19;;;17.56;66.12
72110;BME280;59983;52.010;5.420;2023-06-05T08:19:02;102312.81;;;17.63;66.03
72110;BME280;59983;52.010;5.420;2023-06-05T08:21:29;102312.19;;;17.53;66.97
72110;BME280;59983;52.010;5.420;2023-06-05T08:23:56;102301.91;;;17.66;66.76
72110;BME280;59983;52.010;5.420;2023-06-05T08:26:23;102297.19;;;17.82;66.02
72110;BME280;59983;52.010;5.420;2023-06-05T08:28:49;102298.97;;;18.10;67.15
72110;BME280;59983;52.010;5.420;2023-06-05T08:31:17;102306.28;;;18.22;64.48
72110;BME280;59983;52.010;5.420;2023-06-05T08:33:43;102303.31;;;18.30;64.70
72110;BME280;59983;52.010;5.420;2023-06-05T08:36:10;102295.50;;;18.32;64.04
72110;BME280;59983;52.010;5.420;2023-06-05T08:38:37;102295.72;;;18.24;64.75
72110;BME280;59983;52.010;5.420;2023-06-05T08:41:07;102292.56;;;18.22;64.25
72110;BME280;59983;52.010;5.420;2023-06-05T08:43:37;102296.06;;;18.42;64.95
72110;BME280;59983;52.010;5.420;2023-06-05T08:46:09;102295.56;;;18.55;62.57
72110;BME280;59983;52.010;5.420;2023-06-05T08:48:46;102289.84;;;18.45;63.44
72110;BME280;59983;52.010;5.420;2023-06-05T08:51:15;102283.97;;;18.46;62.87
72110;BME280;59983;52.010;5.420;2023-06-05T08:53:45;102293.75;;;18.44;62.61
72110;BME280;59983;52.010;5.420;2023-06-05T08:56:14;102294.78;;;18.35;63.24
72110;BME280;59983;52.010;5.420;2023-06-05T08:58:41;102287.91;;;18.45;62.52
72110;BME280;59983;52.010;5.420;2023-06-05T09:01:09;102287.59;;;18.50;62.65
72110;BME280;59983;52.010;5.420;2023-06-05T09:03:37;102289.59;;;18.73;64.32
72110;BME280;59983;52.010;5.420;2023-06-05T09:06:03;102286.22;;;19.02;62.91
72110;BME280;59983;52.010;5.420;2023-06-05T09:08:32;102285.22;;;19.14;61.01
72110;BME280;59983;52.010;5.420;2023-06-05T09:11:28;102278.63;;;19.18;61.41
72110;BME280;59983;52.010;5.420;2023-06-05T09:13:57;102278.09;;;19.09;60.77
72110;BME280;59983;52.010;5.420;2023-06-05T09:16:37;102286.88;;;18.95;60.82
72110;BME280;59983;52.010;5.420;2023-06-05T09:19:05;102281.44;;;18.99;60.35
72110;BME280;59983;52.010;5.420;2023-06-05T09:21:32;102276.16;;;18.90;61.84
72110;BME280;59983;52.010;5.420;2023-06-05T09:29:38;102279.53;;;19.52;61.42
72110;BME280;59983;52.010;5.420;2023-06-05T09:32:16;102273.88;;;19.68;58.79
72110;BME280;59983;52.010;5.420;2023-06-05T09:34:43;102277.91;;;19.48;59.33
72110;BME280;59983;52.010;5.420;2023-06-05T09:37:13;102273.22;;;19.25;59.20
72110;BME280;59983;52.010;5.420;2023-06-05T09:39:41;102277.78;;;19.41;59.05
72110;BME280;59983;52.010;5.420;2023-06-05T09:42:12;102272.97;;;19.34;60.59
72110;BME280;59983;52.010;5.420;2023-06-05T09:44:38;102268.38;;;19.68;59.45
72110;BME280;59983;52.010;5.420;2023-06-05T09:47:07;102272.91;;;19.84;58.30
72110;BME280;59983;52.010;5.420;2023-06-05T09:52:09;102264.91;;;20.38;57.24
72110;BME280;59983;52.010;5.420;2023-06-05T09:54:38;102265.66;;;20.02;56.26
72110;BME280;59983;52.010;5.420;2023-06-05T09:57:09;102267.72;;;19.78;57.17
72110;BME280;59983;52.010;5.420;2023-06-05T09:59:52;102261.41;;;19.78;57.37
72110;BME280;59983;52.010;5.420;2023-06-05T10:02:23;102258.19;;;20.02;57.06
72110;BME280;59983;52.010;5.420;2023-06-05T10:05:00;102259.78;;;20.03;57.21
72110;BME280;59983;52.010;5.420;2023-06-05T10:07:27;102261.22;;;20.24;57.56
72110;BME280;59983;52.010;5.420;2023-06-05T10:09:54;102256.69;;;20.42;56.08
72110;BME280;59983;52.010;5.420;2023-06-05T10:12:22;102254.84;;;20.50;55.93
72110;BME280;59983;52.010;5.420;2023-06-05T10:14:50;102254.56;;;20.65;56.14
72110;BME280;59983;52.010;5.420;2023-06-05T10:17:18;102250.31;;;20.75;55.13
72110;BME280;59983;52.010;5.420;2023-06-05T10:19:45;102246.53;;;20.90;55.43
72110;BME280;59983;52.010;5.420;2023-06-05T10:22:12;102245.50;;;21.09;54.41
72110;BME280;59983;52.010;5.420;2023-06-05T10:24:52;102244.53;;;20.87;54.02
72110;BME280;59983;52.010;5.420;2023-06-05T10:35:42;102242.19;;;20.93;54.21
72110;BME280;59983;52.010;5.420;2023-06-05T10:38:15;102245.88;;;21.04;53.38
72110;BME280;59983;52.010;5.420;2023-06-05T10:40:46;102239.44;;;20.89;53.51
72110;BME280;59983;52.010;5.420;2023-06-05T10:43:37;102234.69;;;20.86;55.04
72110;BME280;59983;52.010;5.420;2023-06-05T10:51:47;102241.34;;;20.82;53.60
72110;BME280;59983;52.010;5.420;2023-06-05T10:54:53;102240.72;;;21.03;53.81
72110;BME280;59983;52.010;5.420;2023-06-05T10:57:04;102237.97;;;21.03;53.30
72110;BME280;59983;52.010;5.420;2023-06-05T10:59:35;102242.94;;;21.34;53.52
72110;BME280;59983;52.010;5.420;2023-06-05T11:07:28;102222.50;;;20.91;53.69
72110;BME280;59983;52.010;5.420;2023-06-05T11:15:02;102223.41;;;21.68;51.76
72110;BME280;59983;52.010;5.420;2023-06-05T11:17:34;102212.75;;;21.66;50.87
72110;BME280;59983;52.010;5.420;2023-06-05T11:20:02;102215.47;;;21.63;50.95
72110;BME280;59983;52.010;5.420;2023-06-05T11:28:01;102207.69;;;21.83;49.25
72110;BME280;59983;52.010;5.420;2023-06-05T11:30:46;102211.00;;;22.31;49.14
72110;BME280;59983;52.010;5.420;2023-06-05T11:33:19;102207.47;;;22.70;49.58
72110;BME280;59983;52.010;5.420;2023-06-05T11:35:49;102199.56;;;22.61;47.95
72110;BME280;59983;52.010;5.420;2023-06-05T11:38:18;102198.81;;;22.71;47.96
72110;BME280;59983;52.010;5.420;2023-06-05T11:40:48;102195.63;;;23.05;47.62
72110;BME280;59983;52.010;5.420;2023-06-05T11:43:15;102201.56;;;23.17;47.48
72110;BME280;59983;52.010;5.420;2023-06-05T11:45:52;102197.25;;;22.99;46.69
72110;BME280;59983;52.010;5.420;2023-06-05T11:48:19;102197.25;;;22.99;45.69
72110;BME280;59983;52.010;5.420;2023-06-05T11:50:56;102207.09;;;23.25;45.59
72110;BME280;59983;52.010;5.420;2023-06-05T11:53:24;102199.13;;;23.30;46.71
72110;BME280;59983;52.010;5.420;2023-06-05T11:55:52;102196.66;;;23.71;45.03
72110;BME280;59983;52.010;5.420;2023-06-05T11:58:26;102195.88;;;23.67;44.69
72110;BME280;59983;52.010;5.420;2023-06-05T12:03:30;102182.38;;;23.80;44.50
72110;BME280;59983;52.010;5.420;2023-06-05T12:06:00;102190.19;;;23.99;43.20
72110;BME280;59983;52.010;5.420;2023-06-05T12:08:28;102194.41;;;24.22;43.38
72110;BME280;59983;52.010;5.420;2023-06-05T12:10:56;102185.25;;;24.28;42.88
72110;BME280;59983;52.010;5.420;2023-06-05T12:13:24;102183.31;;;24.22;43.85
72110;BME280;59983;52.010;5.420;2023-06-05T12:16:09;102189.66;;;24.19;42.82
72110;BME280;59983;52.010;5.420;2023-06-05T12:18:36;102182.78;;;24.45;43.55
72110;BME280;59983;52.010;5.420;2023-06-05T12:21:03;102187.19;;;24.87;43.04
72110;BME280;59983;52.010;5.420;2023-06-05T12:23:32;102182.47;;;24.84;40.88
72110;BME280;59983;52.010;5.420;2023-06-05T12:26:00;102182.94;;;24.75;41.70
72110;BME280;59983;52.010;5.420;2023-06-05T12:28:30;102186.03;;;24.81;42.37
72110;BME280;59983;52.010;5.420;2023-06-05T12:30:57;102184.19;;;25.12;40.17
72110;BME280;59983;52.010;5.420;2023-06-05T12:33:25;102179.59;;;24.91;41.36
72110;BME280;59983;52.010;5.420;2023-06-05T12:38:40;102169.97;;;25.06;40.56
72110;BME280;59983;52.010;5.420;2023-06-05T12:41:10;102174.72;;;25.09;41.43
72110;BME280;59983;52.010;5.420;2023-06-05T12:43:37;102175.88;;;25.12;40.82
72110;BME280;59983;52.010;5.420;2023-06-05T12:46:05;102171.63;;;24.97;40.32
72110;BME280;59983;52.010;5.420;2023-06-05T12:48:32;102167.91;;;25.14;39.50
72110;BME280;59983;52.010;5.420;2023-06-05T12:50:58;102168.25;;;25.20;39.78
72110;BME280;59983;52.010;5.420;2023-06-05T12:53:25;102160.00;;;25.12;40.58
72110;BME280;59983;52.010;5.420;2023-06-05T12:55:51;102166.03;;;25.04;39.88
72110;BME280;59983;52.010;5.420;2023-06-05T12:58:18;102162.56;;;24.89;40.34
72110;BME280;59983;52.010;5.420;2023-06-05T13:00:45;102157.22;;;25.09;40.01
72110;BME280;59983;52.010;5.420;2023-06-05T13:03:11;102158.84;;;25.06;39.99
72110;BME280;59983;52.010;5.420;2023-06-05T13:05:39;102151.34;;;25.00;40.40
72110;BME280;59983;52.010;5.420;2023-06-05T13:08:05;102148.31;;;25.28;39.91
72110;BME280;59983;52.010;5.420;2023-06-05T13:10:32;102145.25;;;25.50;38.91
72110;BME280;59983;52.010;5.420;2023-06-05T13:12:59;102145.72;;;25.45;38.93
72110;BME280;59983;52.010;5.420;2023-06-05T13:15:25;102138.97;;;25.46;40.27
72110;BME280;59983;52.010;5.420;2023-06-05T13:17:52;102130.41;;;25.63;38.78
72110;BME280;59983;52.010;5.420;2023-06-05T13:20:19;102131.50;;;25.39;38.81
72110;BME280;59983;52.010;5.420;2023-06-05T13:22:45;102118.25;;;25.50;40.25
72110;BME280;59983;52.010;5.420;2023-06-05T13:25:12;102131.41;;;25.80;38.39
72110;BME280;59983;52.010;5.420;2023-06-05T13:27:39;102118.59;;;25.56;39.63
72110;BME280;59983;52.010;5.420;2023-06-05T13:30:07;102118.13;;;25.30;39.33
72110;BME280;59983;52.010;5.420;2023-06-05T13:32:35;102116.09;;;24.97;40.33
72110;BME280;59983;52.010;5.420;2023-06-05T13:35:01;102123.19;;;25.01;39.56
72110;BME280;59983;52.010;5.420;2023-06-05T13:37:28;102116.25;;;25.20;39.79
72110;BME280;59983;52.010;5.420;2023-06-05T13:39:54;102110.41;;;25.45;38.55
72110;BME280;59983;52.010;5.420;2023-06-05T13:42:21;102108.63;;;25.58;39.23